SBOSBO SNN / EINN
Speedbird OnlineSpeedbird Online SNN / EINN

Shannon Airport
22:25 10°C

Location Shannon, Ireland
Latitude: 52.702
Longitude: -8.92482
Local Time 22:25 on 18 Apr 2024
UTC +1 hours (Europe/Dublin)
Currency £1 equals EUR 1.17
METAR EINN 182100Z 27007KT 230V320 9999 FEW015 BKN017 10/07 Q1024 NOSIG
TAF TAF EINN 181700Z 1818/1918 27012KT 9999 BKN031 PROB40 TEMPO 1818/1908 -RA BKN012 PROB30 TEMPO 1905/1908 BKN007 BECMG 1907/1909 33010KT
Weather As Of 18 Apr 2024 22:25
Description Broken clouds
Wind 13 km/h from West (270°)
Cloud Cover 75%
Precipitation Rain: none, Snow: none
Sunrise 06:29
Sunset 20:39
NOTAM 2 active NOTAM
Rotations During the last 90 days there were
8 flights from LHR
8 flights to LHR
Lounges The Ború Lounge, Terminal 1
Web Airport Website | Wikipedia
Codes IATA: SNN
ICAO: EINN
Altitude 14 Meter / 46 Feet
Distance 632 KM / 393 Miles
from London.
Runways
RunwayLength (m)Surface
05141Partial
063199Asphalt
09245Partial
13166Asphalt
187Partial
23141Partial
243199Asphalt
27245Partial
31166Asphalt
367Partial
Radio
TypeDescriptionFrequency
APPAPP120.2
ATISATIS130.95
GNDGND121.8
TWRTWR118.7
Live ATC



Support Speedbird Online

© 2017-2024 Speedbird Online